sensor_id;sensor_type;location;lat;lon;timestamp;P1;durP1;ratioP1;P2;durP2;ratioP2
10031;SDS011;5056;44.272;19.892;2023-06-26T00:00:17;14.73;;;13.32;;
10031;SDS011;5056;44.272;19.892;2023-06-26T00:02:46;14.43;;;13.13;;
10031;SDS011;5056;44.272;19.892;2023-06-26T00:05:13;14.57;;;13.18;;
10031;SDS011;5056;44.272;19.892;2023-06-26T00:07:41;15.15;;;13.77;;
10031;SDS011;5056;44.272;19.892;2023-06-26T00:10:09;13.15;;;12.05;;
10031;SDS011;5056;44.272;19.892;2023-06-26T00:12:37;14.57;;;13.20;;
10031;SDS011;5056;44.272;19.892;2023-06-26T00:15:05;13.30;;;12.00;;
10031;SDS011;5056;44.272;19.892;2023-06-26T00:17:36;14.30;;;12.90;;
10031;SDS011;5056;44.272;19.892;2023-06-26T00:20:04;13.75;;;12.57;;
10031;SDS011;5056;44.272;19.892;2023-06-26T00:22:32;13.45;;;12.25;;
10031;SDS011;5056;44.272;19.892;2023-06-26T00:25:00;13.48;;;12.32;;
10031;SDS011;5056;44.272;19.892;2023-06-26T00:27:28;13.68;;;12.40;;
10031;SDS011;5056;44.272;19.892;2023-06-26T00:29:59;12.98;;;11.88;;
10031;SDS011;5056;44.272;19.892;2023-06-26T00:32:26;13.18;;;12.05;;
10031;SDS011;5056;44.272;19.892;2023-06-26T00:34:55;13.52;;;12.23;;
10031;SDS011;5056;44.272;19.892;2023-06-26T00:37:23;12.85;;;11.75;;
10031;SDS011;5056;44.272;19.892;2023-06-26T00:39:50;13.88;;;12.65;;
10031;SDS011;5056;44.272;19.892;2023-06-26T00:42:28;12.75;;;11.65;;
10031;SDS011;5056;44.272;19.892;2023-06-26T00:44:55;13.02;;;11.85;;
10031;SDS011;5056;44.272;19.892;2023-06-26T00:47:23;13.05;;;11.80;;
10031;SDS011;5056;44.272;19.892;2023-06-26T00:49:55;11.80;;;10.63;;
10031;SDS011;5056;44.272;19.892;2023-06-26T00:52:24;12.88;;;11.60;;
10031;SDS011;5056;44.272;19.892;2023-06-26T00:54:53;13.15;;;11.57;;
10031;SDS011;5056;44.272;19.892;2023-06-26T00:57:20;12.48;;;11.35;;
10031;SDS011;5056;44.272;19.892;2023-06-26T00:59:47;11.93;;;10.93;;
10031;SDS011;5056;44.272;19.892;2023-06-26T01:02:16;12.70;;;11.60;;
10031;SDS011;5056;44.272;19.892;2023-06-26T01:04:49;12.35;;;11.30;;
10031;SDS011;5056;44.272;19.892;2023-06-26T01:07:20;11.82;;;10.70;;
10031;SDS011;5056;44.272;19.892;2023-06-26T01:09:48;11.85;;;10.85;;
10031;SDS011;5056;44.272;19.892;2023-06-26T01:12:15;13.30;;;11.75;;
10031;SDS011;5056;44.272;19.892;2023-06-26T01:14:44;12.68;;;11.63;;
10031;SDS011;5056;44.272;19.892;2023-06-26T01:17:11;12.25;;;11.05;;
10031;SDS011;5056;44.272;19.892;2023-06-26T01:19:40;12.20;;;11.10;;
10031;SDS011;5056;44.272;19.892;2023-06-26T01:22:10;12.38;;;11.25;;
10031;SDS011;5056;44.272;19.892;2023-06-26T01:24:47;12.55;;;11.43;;
10031;SDS011;5056;44.272;19.892;2023-06-26T01:27:24;11.55;;;10.55;;
10031;SDS011;5056;44.272;19.892;2023-06-26T01:29:53;11.38;;;10.45;;
10031;SDS011;5056;44.272;19.892;2023-06-26T01:32:26;12.10;;;10.90;;
10031;SDS011;5056;44.272;19.892;2023-06-26T01:37:45;11.38;;;10.35;;
10031;SDS011;5056;44.272;19.892;2023-06-26T01:40:13;11.73;;;10.73;;
10031;SDS011;5056;44.272;19.892;2023-06-26T01:42:42;13.05;;;11.85;;
10031;SDS011;5056;44.272;19.892;2023-06-26T01:45:12;13.73;;;12.40;;
10031;SDS011;5056;44.272;19.892;2023-06-26T01:47:40;14.50;;;12.68;;
10031;SDS011;5056;44.272;19.892;2023-06-26T01:50:12;13.02;;;11.80;;
10031;SDS011;5056;44.272;19.892;2023-06-26T01:52:45;12.38;;;11.27;;
10031;SDS011;5056;44.272;19.892;2023-06-26T01:55:20;12.60;;;11.40;;
10031;SDS011;5056;44.272;19.892;2023-06-26T01:57:54;11.88;;;10.75;;
10031;SDS011;5056;44.272;19.892;2023-06-26T02:00:30;10.90;;;9.98;;
10031;SDS011;5056;44.272;19.892;2023-06-26T02:03:00;11.77;;;10.65;;
10031;SDS011;5056;44.272;19.892;2023-06-26T02:05:27;11.38;;;10.43;;
10031;SDS011;5056;44.272;19.892;2023-06-26T02:07:56;11.43;;;10.43;;
10031;SDS011;5056;44.272;19.892;2023-06-26T02:10:23;11.70;;;10.60;;
10031;SDS011;5056;44.272;19.892;2023-06-26T02:15:49;11.25;;;10.25;;
10031;SDS011;5056;44.272;19.892;2023-06-26T02:18:31;11.05;;;10.00;;
10031;SDS011;5056;44.272;19.892;2023-06-26T02:21:12;12.68;;;10.98;;
10031;SDS011;5056;44.272;19.892;2023-06-26T02:26:48;11.68;;;10.60;;
10031;SDS011;5056;44.272;19.892;2023-06-26T02:29:17;11.55;;;10.55;;
10031;SDS011;5056;44.272;19.892;2023-06-26T02:38:10;12.40;;;11.30;;
10031;SDS011;5056;44.272;19.892;2023-06-26T02:40:38;11.02;;;10.10;;
10031;SDS011;5056;44.272;19.892;2023-06-26T02:43:27;11.82;;;10.57;;
10031;SDS011;5056;44.272;19.892;2023-06-26T02:46:20;11.32;;;10.02;;
10031;SDS011;5056;44.272;19.892;2023-06-26T02:51:31;12.40;;;11.20;;
10031;SDS011;5056;44.272;19.892;2023-06-26T02:57:01;12.32;;;11.13;;
10031;SDS011;5056;44.272;19.892;2023-06-26T03:02:28;11.48;;;10.52;;
10031;SDS011;5056;44.272;19.892;2023-06-26T03:04:55;11.75;;;10.63;;
10031;SDS011;5056;44.272;19.892;2023-06-26T03:07:22;12.80;;;11.60;;
10031;SDS011;5056;44.272;19.892;2023-06-26T03:09:50;11.70;;;10.63;;
10031;SDS011;5056;44.272;19.892;2023-06-26T03:12:17;11.57;;;10.57;;
10031;SDS011;5056;44.272;19.892;2023-06-26T03:14:44;12.55;;;11.15;;
10031;SDS011;5056;44.272;19.892;2023-06-26T03:17:12;11.52;;;10.63;;
10031;SDS011;5056;44.272;19.892;2023-06-26T03:19:40;12.43;;;11.25;;
10031;SDS011;5056;44.272;19.892;2023-06-26T03:22:07;11.98;;;10.88;;
10031;SDS011;5056;44.272;19.892;2023-06-26T03:24:37;11.52;;;10.38;;
10031;SDS011;5056;44.272;19.892;2023-06-26T03:27:04;11.13;;;10.23;;
10031;SDS011;5056;44.272;19.892;2023-06-26T03:29:33;12.15;;;11.05;;
10031;SDS011;5056;44.272;19.892;2023-06-26T03:32:00;10.88;;;9.85;;
10031;SDS011;5056;44.272;19.892;2023-06-26T03:34:27;11.27;;;10.27;;
10031;SDS011;5056;44.272;19.892;2023-06-26T03:36:57;10.93;;;10.13;;
10031;SDS011;5056;44.272;19.892;2023-06-26T03:39:24;12.10;;;10.95;;
10031;SDS011;5056;44.272;19.892;2023-06-26T03:41:52;11.55;;;10.55;;
10031;SDS011;5056;44.272;19.892;2023-06-26T03:44:20;11.68;;;10.50;;
10031;SDS011;5056;44.272;19.892;2023-06-26T03:46:50;12.13;;;11.13;;
10031;SDS011;5056;44.272;19.892;2023-06-26T03:49:18;13.13;;;11.98;;
10031;SDS011;5056;44.272;19.892;2023-06-26T03:54:42;12.07;;;10.98;;
10031;SDS011;5056;44.272;19.892;2023-06-26T03:57:11;12.05;;;10.93;;
10031;SDS011;5056;44.272;19.892;2023-06-26T03:59:40;12.23;;;11.13;;
10031;SDS011;5056;44.272;19.892;2023-06-26T04:02:07;10.80;;;9.90;;
10031;SDS011;5056;44.272;19.892;2023-06-26T04:04:37;11.73;;;10.65;;
10031;SDS011;5056;44.272;19.892;2023-06-26T04:07:05;11.80;;;10.32;;
10031;SDS011;5056;44.272;19.892;2023-06-26T04:09:33;10.95;;;9.85;;
10031;SDS011;5056;44.272;19.892;2023-06-26T04:12:00;10.35;;;9.48;;
10031;SDS011;5056;44.272;19.892;2023-06-26T04:14:29;11.02;;;10.13;;
10031;SDS011;5056;44.272;19.892;2023-06-26T04:16:56;10.48;;;9.55;;
10031;SDS011;5056;44.272;19.892;2023-06-26T04:19:26;11.65;;;10.65;;
10031;SDS011;5056;44.272;19.892;2023-06-26T04:21:54;11.20;;;10.20;;
10031;SDS011;5056;44.272;19.892;2023-06-26T04:24:22;10.52;;;9.65;;
10031;SDS011;5056;44.272;19.892;2023-06-26T04:26:52;10.95;;;9.95;;
10031;SDS011;5056;44.272;19.892;2023-06-26T04:29:22;11.48;;;10.48;;
10031;SDS011;5056;44.272;19.892;2023-06-26T04:31:50;10.50;;;9.60;;
10031;SDS011;5056;44.272;19.892;2023-06-26T04:34:35;11.65;;;10.52;;
10031;SDS011;5056;44.272;19.892;2023-06-26T04:37:06;11.90;;;10.77;;
10031;SDS011;5056;44.272;19.892;2023-06-26T04:39:35;12.13;;;10.93;;
10031;SDS011;5056;44.272;19.892;2023-06-26T04:42:06;11.68;;;10.55;;
10031;SDS011;5056;44.272;19.892;2023-06-26T04:44:37;12.35;;;11.23;;
10031;SDS011;5056;44.272;19.892;2023-06-26T04:47:06;11.70;;;10.70;;
10031;SDS011;5056;44.272;19.892;2023-06-26T04:49:35;11.13;;;10.23;;
10031;SDS011;5056;44.272;19.892;2023-06-26T04:54:56;11.45;;;10.35;;
10031;SDS011;5056;44.272;19.892;2023-06-26T04:57:24;11.65;;;10.65;;
10031;SDS011;5056;44.272;19.892;2023-06-26T04:59:51;11.07;;;10.05;;
10031;SDS011;5056;44.272;19.892;2023-06-26T05:02:18;11.48;;;10.35;;
10031;SDS011;5056;44.272;19.892;2023-06-26T05:04:50;11.38;;;10.32;;
10031;SDS011;5056;44.272;19.892;2023-06-26T05:10:40;10.75;;;9.85;;
10031;SDS011;5056;44.272;19.892;2023-06-26T05:13:17;10.38;;;9.48;;
10031;SDS011;5056;44.272;19.892;2023-06-26T05:15:45;10.70;;;9.85;;
10031;SDS011;5056;44.272;19.892;2023-06-26T05:18:24;9.65;;;8.95;;
10031;SDS011;5056;44.272;19.892;2023-06-26T05:20:52;10.90;;;9.90;;
10031;SDS011;5056;44.272;19.892;2023-06-26T05:23:23;10.77;;;9.70;;
10031;SDS011;5056;44.272;19.892;2023-06-26T05:25:52;10.57;;;9.63;;
10031;SDS011;5056;44.272;19.892;2023-06-26T05:28:23;9.55;;;8.68;;
10031;SDS011;5056;44.272;19.892;2023-06-26T05:30:57;9.75;;;9.05;;
10031;SDS011;5056;44.272;19.892;2023-06-26T05:33:25;9.75;;;8.85;;
10031;SDS011;5056;44.272;19.892;2023-06-26T05:35:53;10.68;;;9.57;;
10031;SDS011;5056;44.272;19.892;2023-06-26T05:41:17;10.35;;;9.45;;
10031;SDS011;5056;44.272;19.892;2023-06-26T05:43:50;9.32;;;8.55;;
10031;SDS011;5056;44.272;19.892;2023-06-26T05:46:19;10.43;;;9.35;;
10031;SDS011;5056;44.272;19.892;2023-06-26T05:55:09;9.55;;;8.75;;
10031;SDS011;5056;44.272;19.892;2023-06-26T05:57:37;9.60;;;8.80;;
10031;SDS011;5056;44.272;19.892;2023-06-26T06:00:07;9.20;;;8.50;;
10031;SDS011;5056;44.272;19.892;2023-06-26T06:02:36;9.27;;;8.38;;
10031;SDS011;5056;44.272;19.892;2023-06-26T06:05:04;10.35;;;9.02;;
10031;SDS011;5056;44.272;19.892;2023-06-26T06:07:32;9.70;;;8.90;;
10031;SDS011;5056;44.272;19.892;2023-06-26T06:10:02;9.50;;;8.63;;
10031;SDS011;5056;44.272;19.892;2023-06-26T06:12:31;9.02;;;8.32;;
10031;SDS011;5056;44.272;19.892;2023-06-26T06:14:58;8.82;;;8.13;;
10031;SDS011;5056;44.272;19.892;2023-06-26T06:17:27;9.60;;;8.80;;
10031;SDS011;5056;44.272;19.892;2023-06-26T06:19:54;9.80;;;8.85;;
10031;SDS011;5056;44.272;19.892;2023-06-26T06:22:24;8.27;;;7.57;;
10031;SDS011;5056;44.272;19.892;2023-06-26T06:24:54;8.88;;;7.97;;
10031;SDS011;5056;44.272;19.892;2023-06-26T06:27:21;8.88;;;8.18;;
10031;SDS011;5056;44.272;19.892;2023-06-26T06:29:48;8.70;;;8.10;;
10031;SDS011;5056;44.272;19.892;2023-06-26T06:32:16;8.90;;;8.05;;
10031;SDS011;5056;44.272;19.892;2023-06-26T06:34:45;9.48;;;8.57;;
10031;SDS011;5056;44.272;19.892;2023-06-26T06:37:12;8.48;;;7.68;;
10031;SDS011;5056;44.272;19.892;2023-06-26T06:39:40;9.07;;;8.27;;
10031;SDS011;5056;44.272;19.892;2023-06-26T06:42:07;8.05;;;7.45;;
10031;SDS011;5056;44.272;19.892;2023-06-26T06:44:34;7.90;;;7.20;;
10031;SDS011;5056;44.272;19.892;2023-06-26T06:47:01;8.50;;;7.80;;
10031;SDS011;5056;44.272;19.892;2023-06-26T06:49:29;8.20;;;7.57;;
10031;SDS011;5056;44.272;19.892;2023-06-26T06:52:01;9.00;;;8.30;;
10031;SDS011;5056;44.272;19.892;2023-06-26T06:54:30;7.88;;;7.15;;
10031;SDS011;5056;44.272;19.892;2023-06-26T06:56:57;8.20;;;7.40;;
10031;SDS011;5056;44.272;19.892;2023-06-26T06:59:25;7.18;;;6.72;;
10031;SDS011;5056;44.272;19.892;2023-06-26T07:01:53;7.88;;;7.28;;
10031;SDS011;5056;44.272;19.892;2023-06-26T07:04:20;8.52;;;7.68;;
10031;SDS011;5056;44.272;19.892;2023-06-26T07:10:12;7.22;;;6.72;;
10031;SDS011;5056;44.272;19.892;2023-06-26T07:12:40;7.47;;;6.88;;
10031;SDS011;5056;44.272;19.892;2023-06-26T07:15:09;8.10;;;7.40;;
10031;SDS011;5056;44.272;19.892;2023-06-26T07:17:40;8.07;;;7.35;;
10031;SDS011;5056;44.272;19.892;2023-06-26T07:20:08;8.40;;;7.50;;
10031;SDS011;5056;44.272;19.892;2023-06-26T07:22:40;7.75;;;7.15;;
10031;SDS011;5056;44.272;19.892;2023-06-26T07:25:09;7.22;;;6.63;;
10031;SDS011;5056;44.272;19.892;2023-06-26T07:27:38;7.45;;;6.75;;
10031;SDS011;5056;44.272;19.892;2023-06-26T07:30:06;7.03;;;6.47;;
10031;SDS011;5056;44.272;19.892;2023-06-26T07:32:34;6.90;;;6.40;;
10031;SDS011;5056;44.272;19.892;2023-06-26T07:35:05;7.65;;;7.07;;
10031;SDS011;5056;44.272;19.892;2023-06-26T07:37:36;7.28;;;6.70;;
10031;SDS011;5056;44.272;19.892;2023-06-26T07:40:03;7.40;;;6.80;;
10031;SDS011;5056;44.272;19.892;2023-06-26T07:42:33;7.15;;;6.53;;
10031;SDS011;5056;44.272;19.892;2023-06-26T07:45:00;7.00;;;6.45;;
10031;SDS011;5056;44.272;19.892;2023-06-26T07:47:35;7.30;;;6.60;;
10031;SDS011;5056;44.272;19.892;2023-06-26T07:50:02;7.28;;;6.57;;
10031;SDS011;5056;44.272;19.892;2023-06-26T07:52:30;7.00;;;6.40;;
10031;SDS011;5056;44.272;19.892;2023-06-26T07:54:57;7.25;;;6.55;;
10031;SDS011;5056;44.272;19.892;2023-06-26T07:57:25;7.43;;;6.70;;
10031;SDS011;5056;44.272;19.892;2023-06-26T07:59:56;7.00;;;6.38;;
10031;SDS011;5056;44.272;19.892;2023-06-26T08:02:25;9.10;;;6.32;;
10031;SDS011;5056;44.272;19.892;2023-06-26T08:07:26;5.93;;;5.53;;
10031;SDS011;5056;44.272;19.892;2023-06-26T08:09:53;6.32;;;5.93;;
10031;SDS011;5056;44.272;19.892;2023-06-26T08:12:20;6.80;;;6.00;;
10031;SDS011;5056;44.272;19.892;2023-06-26T08:14:47;6.32;;;5.82;;
10031;SDS011;5056;44.272;19.892;2023-06-26T08:17:15;6.80;;;6.35;;
10031;SDS011;5056;44.272;19.892;2023-06-26T08:19:43;7.97;;;5.97;;
10031;SDS011;5056;44.272;19.892;2023-06-26T08:22:10;6.38;;;5.88;;
10031;SDS011;5056;44.272;19.892;2023-06-26T08:24:39;6.45;;;5.93;;
10031;SDS011;5056;44.272;19.892;2023-06-26T08:27:06;5.75;;;5.25;;
10031;SDS011;5056;44.272;19.892;2023-06-26T08:29:34;6.25;;;5.75;;
10031;SDS011;5056;44.272;19.892;2023-06-26T08:32:01;5.53;;;5.10;;
10031;SDS011;5056;44.272;19.892;2023-06-26T08:34:31;6.35;;;5.63;;
10031;SDS011;5056;44.272;19.892;2023-06-26T08:37:13;6.05;;;5.50;;
10031;SDS011;5056;44.272;19.892;2023-06-26T08:39:40;5.78;;;5.30;;
10031;SDS011;5056;44.272;19.892;2023-06-26T08:42:07;5.93;;;5.35;;
10031;SDS011;5056;44.272;19.892;2023-06-26T08:44:35;6.72;;;6.15;;
10031;SDS011;5056;44.272;19.892;2023-06-26T08:47:04;6.70;;;6.10;;
10031;SDS011;5056;44.272;19.892;2023-06-26T08:49:37;5.18;;;4.88;;
10031;SDS011;5056;44.272;19.892;2023-06-26T08:52:28;5.85;;;5.20;;
10031;SDS011;5056;44.272;19.892;2023-06-26T08:54:58;5.75;;;5.35;;
10031;SDS011;5056;44.272;19.892;2023-06-26T08:57:25;5.95;;;5.45;;
10031;SDS011;5056;44.272;19.892;2023-06-26T08:59:53;5.65;;;5.15;;
10031;SDS011;5056;44.272;19.892;2023-06-26T09:02:20;5.90;;;5.47;;
10031;SDS011;5056;44.272;19.892;2023-06-26T09:04:51;5.40;;;5.03;;
10031;SDS011;5056;44.272;19.892;2023-06-26T09:07:18;6.13;;;5.63;;
10031;SDS011;5056;44.272;19.892;2023-06-26T09:09:45;5.65;;;5.15;;
10031;SDS011;5056;44.272;19.892;2023-06-26T09:12:13;6.32;;;5.68;;
10031;SDS011;5056;44.272;19.892;2023-06-26T09:14:44;5.38;;;4.97;;
10031;SDS011;5056;44.272;19.892;2023-06-26T09:17:13;5.85;;;5.45;;
10031;SDS011;5056;44.272;19.892;2023-06-26T09:19:40;7.30;;;5.13;;
10031;SDS011;5056;44.272;19.892;2023-06-26T09:22:12;10.93;;;5.47;;
10031;SDS011;5056;44.272;19.892;2023-06-26T09:24:40;5.60;;;5.10;;
10031;SDS011;5056;44.272;19.892;2023-06-26T09:27:08;5.05;;;4.72;;
10031;SDS011;5056;44.272;19.892;2023-06-26T09:29:36;5.70;;;5.20;;
10031;SDS011;5056;44.272;19.892;2023-06-26T09:32:03;5.97;;;5.47;;
10031;SDS011;5056;44.272;19.892;2023-06-26T09:34:30;5.65;;;5.15;;
10031;SDS011;5056;44.272;19.892;2023-06-26T09:36:58;5.75;;;5.25;;
10031;SDS011;5056;44.272;19.892;2023-06-26T09:42:23;5.78;;;5.32;;
10031;SDS011;5056;44.272;19.892;2023-06-26T09:44:51;5.35;;;4.95;;
10031;SDS011;5056;44.272;19.892;2023-06-26T09:47:19;5.40;;;5.05;;
10031;SDS011;5056;44.272;19.892;2023-06-26T09:49:47;12.93;;;5.43;;
10031;SDS011;5056;44.272;19.892;2023-06-26T09:52:18;6.57;;;5.97;;
10031;SDS011;5056;44.272;19.892;2023-06-26T09:54:45;6.20;;;5.70;;
10031;SDS011;5056;44.272;19.892;2023-06-26T09:57:16;5.85;;;5.35;;
10031;SDS011;5056;44.272;19.892;2023-06-26T09:59:43;6.05;;;5.55;;
10031;SDS011;5056;44.272;19.892;2023-06-26T10:02:12;6.03;;;5.53;;
10031;SDS011;5056;44.272;19.892;2023-06-26T10:04:39;5.68;;;5.28;;
10031;SDS011;5056;44.272;19.892;2023-06-26T10:07:06;5.90;;;5.38;;
10031;SDS011;5056;44.272;19.892;2023-06-26T10:09:40;5.13;;;4.72;;
10031;SDS011;5056;44.272;19.892;2023-06-26T10:12:11;5.55;;;5.15;;
10031;SDS011;5056;44.272;19.892;2023-06-26T10:14:42;5.13;;;4.82;;
10031;SDS011;5056;44.272;19.892;2023-06-26T10:17:10;5.45;;;4.95;;
10031;SDS011;5056;44.272;19.892;2023-06-26T10:19:43;5.18;;;4.85;;
10031;SDS011;5056;44.272;19.892;2023-06-26T10:22:11;5.70;;;5.22;;
10031;SDS011;5056;44.272;19.892;2023-06-26T10:24:38;5.47;;;5.03;;
10031;SDS011;5056;44.272;19.892;2023-06-26T10:27:11;6.97;;;5.30;;
10031;SDS011;5056;44.272;19.892;2023-06-26T10:29:41;5.65;;;5.25;;
10031;SDS011;5056;44.272;19.892;2023-06-26T10:32:10;5.90;;;5.50;;
10031;SDS011;5056;44.272;19.892;2023-06-26T10:34:37;5.15;;;4.85;;
10031;SDS011;5056;44.272;19.892;2023-06-26T10:37:05;5.22;;;4.93;;
10031;SDS011;5056;44.272;19.892;2023-06-26T10:39:45;4.90;;;4.60;;
10031;SDS011;5056;44.272;19.892;2023-06-26T10:42:16;4.95;;;4.38;;
10031;SDS011;5056;44.272;19.892;2023-06-26T10:44:46;5.10;;;4.70;;
10031;SDS011;5056;44.272;19.892;2023-06-26T10:47:28;5.47;;;4.70;;
10031;SDS011;5056;44.272;19.892;2023-06-26T10:49:56;5.90;;;5.50;;
10031;SDS011;5056;44.272;19.892;2023-06-26T10:52:25;5.30;;;5.00;;
10031;SDS011;5056;44.272;19.892;2023-06-26T10:54:54;5.65;;;4.72;;
10031;SDS011;5056;44.272;19.892;2023-06-26T10:57:25;5.10;;;4.68;;
10031;SDS011;5056;44.272;19.892;2023-06-26T11:02:48;4.82;;;4.53;;
10031;SDS011;5056;44.272;19.892;2023-06-26T11:05:23;5.28;;;4.95;;
10031;SDS011;5056;44.272;19.892;2023-06-26T11:08:04;5.85;;;5.40;;
10031;SDS011;5056;44.272;19.892;2023-06-26T11:13:28;5.70;;;4.97;;
10031;SDS011;5056;44.272;19.892;2023-06-26T11:15:56;5.22;;;4.85;;
10031;SDS011;5056;44.272;19.892;2023-06-26T11:18:24;4.78;;;4.47;;
10031;SDS011;5056;44.272;19.892;2023-06-26T11:20:51;5.07;;;4.68;;
10031;SDS011;5056;44.272;19.892;2023-06-26T11:23:19;5.22;;;4.82;;
10031;SDS011;5056;44.272;19.892;2023-06-26T11:25:50;5.22;;;4.82;;
10031;SDS011;5056;44.272;19.892;2023-06-26T11:28:17;5.13;;;4.72;;
10031;SDS011;5056;44.272;19.892;2023-06-26T11:30:46;5.03;;;4.60;;
10031;SDS011;5056;44.272;19.892;2023-06-26T11:33:13;4.50;;;4.20;;
10031;SDS011;5056;44.272;19.892;2023-06-26T11:35:40;4.93;;;4.63;;
10031;SDS011;5056;44.272;19.892;2023-06-26T11:38:07;4.35;;;4.05;;
10031;SDS011;5056;44.272;19.892;2023-06-26T11:40:35;4.88;;;4.57;;
10031;SDS011;5056;44.272;19.892;2023-06-26T11:43:03;5.07;;;4.68;;
10031;SDS011;5056;44.272;19.892;2023-06-26T11:45:32;5.10;;;4.30;;
10031;SDS011;5056;44.272;19.892;2023-06-26T11:48:07;4.93;;;4.50;;
10031;SDS011;5056;44.272;19.892;2023-06-26T11:50:38;4.50;;;4.20;;
10031;SDS011;5056;44.272;19.892;2023-06-26T11:53:04;4.88;;;4.57;;
10031;SDS011;5056;44.272;19.892;2023-06-26T11:55:40;4.47;;;4.18;;
10031;SDS011;5056;44.272;19.892;2023-06-26T11:58:08;4.85;;;4.55;;
10031;SDS011;5056;44.272;19.892;2023-06-26T12:00:40;5.03;;;4.70;;
10031;SDS011;5056;44.272;19.892;2023-06-26T12:03:10;4.80;;;4.47;;
10031;SDS011;5056;44.272;19.892;2023-06-26T12:05:40;4.30;;;4.03;;
10031;SDS011;5056;44.272;19.892;2023-06-26T12:08:26;4.47;;;4.18;;
10031;SDS011;5056;44.272;19.892;2023-06-26T12:10:54;4.32;;;4.00;;
10031;SDS011;5056;44.272;19.892;2023-06-26T12:13:21;4.90;;;4.50;;
10031;SDS011;5056;44.272;19.892;2023-06-26T12:15:49;4.70;;;4.35;;
10031;SDS011;5056;44.272;19.892;2023-06-26T12:18:21;5.22;;;4.72;;
10031;SDS011;5056;44.272;19.892;2023-06-26T12:20:49;5.90;;;4.40;;
10031;SDS011;5056;44.272;19.892;2023-06-26T12:23:17;4.68;;;4.28;;
10031;SDS011;5056;44.272;19.892;2023-06-26T12:25:45;4.57;;;4.28;;
10031;SDS011;5056;44.272;19.892;2023-06-26T12:28:15;4.47;;;4.18;;
10031;SDS011;5056;44.272;19.892;2023-06-26T12:30:54;5.50;;;5.00;;
10031;SDS011;5056;44.272;19.892;2023-06-26T12:33:41;5.43;;;4.97;;
10031;SDS011;5056;44.272;19.892;2023-06-26T12:36:10;5.07;;;4.78;;
10031;SDS011;5056;44.272;19.892;2023-06-26T12:38:37;5.13;;;4.72;;
10031;SDS011;5056;44.272;19.892;2023-06-26T12:41:11;4.63;;;4.30;;
10031;SDS011;5056;44.272;19.892;2023-06-26T12:43:40;7.63;;;4.70;;
10031;SDS011;5056;44.272;19.892;2023-06-26T12:46:08;5.07;;;4.40;;
10031;SDS011;5056;44.272;19.892;2023-06-26T12:48:38;5.05;;;4.70;;
10031;SDS011;5056;44.272;19.892;2023-06-26T12:51:11;5.68;;;4.28;;
10031;SDS011;5056;44.272;19.892;2023-06-26T12:53:54;5.07;;;4.53;;
10031;SDS011;5056;44.272;19.892;2023-06-26T12:56:24;4.57;;;4.07;;
10031;SDS011;5056;44.272;19.892;2023-06-26T12:58:52;4.30;;;4.00;;
10031;SDS011;5056;44.272;19.892;2023-06-26T13:01:20;4.45;;;4.15;;
10031;SDS011;5056;44.272;19.892;2023-06-26T13:03:49;4.80;;;4.50;;
10031;SDS011;5056;44.272;19.892;2023-06-26T13:06:23;5.03;;;4.68;;
10031;SDS011;5056;44.272;19.892;2023-06-26T13:11:52;4.95;;;4.50;;
10031;SDS011;5056;44.272;19.892;2023-06-26T13:14:20;5.28;;;4.45;;
10031;SDS011;5056;44.272;19.892;2023-06-26T13:16:54;4.50;;;4.10;;
10031;SDS011;5056;44.272;19.892;2023-06-26T13:19:22;4.85;;;4.45;;
10031;SDS011;5056;44.272;19.892;2023-06-26T13:21:55;5.45;;;4.20;;
10031;SDS011;5056;44.272;19.892;2023-06-26T13:24:22;4.90;;;4.60;;
10031;SDS011;5056;44.272;19.892;2023-06-26T13:26:50;4.63;;;4.22;;
10031;SDS011;5056;44.272;19.892;2023-06-26T13:32:41;4.80;;;4.50;;
10031;SDS011;5056;44.272;19.892;2023-06-26T13:35:08;5.07;;;4.60;;
10031;SDS011;5056;44.272;19.892;2023-06-26T13:37:37;6.40;;;4.80;;
10031;SDS011;5056;44.272;19.892;2023-06-26T13:40:16;5.20;;;4.80;;
10031;SDS011;5056;44.272;19.892;2023-06-26T13:42:44;4.47;;;4.18;;
10031;SDS011;5056;44.272;19.892;2023-06-26T13:45:11;4.28;;;3.90;;
10031;SDS011;5056;44.272;19.892;2023-06-26T13:47:38;4.22;;;3.95;;
10031;SDS011;5056;44.272;19.892;2023-06-26T13:53:29;5.05;;;4.65;;
10031;SDS011;5056;44.272;19.892;2023-06-26T13:56:00;4.97;;;4.60;;
10031;SDS011;5056;44.272;19.892;2023-06-26T13:58:28;4.95;;;4.50;;
10031;SDS011;5056;44.272;19.892;2023-06-26T14:07:36;4.82;;;4.43;;
10031;SDS011;5056;44.272;19.892;2023-06-26T14:10:11;4.40;;;4.10;;
10031;SDS011;5056;44.272;19.892;2023-06-26T14:12:39;4.57;;;4.18;;
10031;SDS011;5056;44.272;19.892;2023-06-26T14:15:07;4.15;;;3.85;;
10031;SDS011;5056;44.272;19.892;2023-06-26T14:17:36;4.40;;;4.10;;
10031;SDS011;5056;44.272;19.892;2023-06-26T14:20:05;4.68;;;4.38;;
10031;SDS011;5056;44.272;19.892;2023-06-26T14:22:35;4.57;;;4.28;;
10031;SDS011;5056;44.272;19.892;2023-06-26T14:25:13;4.93;;;4.40;;
10031;SDS011;5056;44.272;19.892;2023-06-26T14:27:43;4.32;;;3.92;;
10031;SDS011;5056;44.272;19.892;2023-06-26T14:30:10;4.30;;;4.10;;
10031;SDS011;5056;44.272;19.892;2023-06-26T14:32:39;4.40;;;4.10;;
10031;SDS011;5056;44.272;19.892;2023-06-26T14:35:06;4.68;;;4.10;;
10031;SDS011;5056;44.272;19.892;2023-06-26T14:37:37;3.85;;;3.60;;
10031;SDS011;5056;44.272;19.892;2023-06-26T14:40:06;4.00;;;3.80;;
10031;SDS011;5056;44.272;19.892;2023-06-26T14:42:38;4.50;;;4.20;;
10031;SDS011;5056;44.272;19.892;2023-06-26T14:48:08;4.30;;;4.00;;
10031;SDS011;5056;44.272;19.892;2023-06-26T14:50:35;4.53;;;4.22;;
10031;SDS011;5056;44.272;19.892;2023-06-26T14:53:03;4.47;;;4.07;;
10031;SDS011;5056;44.272;19.892;2023-06-26T14:55:32;4.97;;;4.47;;
10031;SDS011;5056;44.272;19.892;2023-06-26T14:58:06;4.90;;;4.50;;
10031;SDS011;5056;44.272;19.892;2023-06-26T15:00:33;4.93;;;4.60;;
10031;SDS011;5056;44.272;19.892;2023-06-26T15:03:00;5.05;;;4.65;;
10031;SDS011;5056;44.272;19.892;2023-06-26T15:05:27;4.75;;;4.45;;
10031;SDS011;5056;44.272;19.892;2023-06-26T15:07:54;4.72;;;4.40;;
10031;SDS011;5056;44.272;19.892;2023-06-26T15:10:22;4.68;;;4.38;;
10031;SDS011;5056;44.272;19.892;2023-06-26T15:12:49;4.60;;;4.30;;
10031;SDS011;5056;44.272;19.892;2023-06-26T15:15:19;4.50;;;4.20;;
10031;SDS011;5056;44.272;19.892;2023-06-26T15:17:47;4.65;;;4.28;;
10031;SDS011;5056;44.272;19.892;2023-06-26T15:20:14;4.32;;;4.03;;
10031;SDS011;5056;44.272;19.892;2023-06-26T15:22:41;4.93;;;4.50;;
10031;SDS011;5056;44.272;19.892;2023-06-26T15:25:08;5.00;;;4.60;;
10031;SDS011;5056;44.272;19.892;2023-06-26T15:27:35;4.38;;;4.07;;
10031;SDS011;5056;44.272;19.892;2023-06-26T15:30:03;4.47;;;4.18;;
10031;SDS011;5056;44.272;19.892;2023-06-26T15:32:32;3.92;;;3.72;;
10031;SDS011;5056;44.272;19.892;2023-06-26T15:34:59;4.47;;;4.18;;
10031;SDS011;5056;44.272;19.892;2023-06-26T15:37:27;4.55;;;4.25;;
10031;SDS011;5056;44.272;19.892;2023-06-26T15:39:55;4.95;;;4.38;;
10031;SDS011;5056;44.272;19.892;2023-06-26T15:42:26;4.82;;;4.25;;
10031;SDS011;5056;44.272;19.892;2023-06-26T15:44:54;4.70;;;4.40;;
10031;SDS011;5056;44.272;19.892;2023-06-26T15:47:22;5.18;;;4.68;;
10031;SDS011;5056;44.272;19.892;2023-06-26T15:49:51;4.65;;;4.35;;
10031;SDS011;5056;44.272;19.892;2023-06-26T15:52:18;5.72;;;4.47;;
10031;SDS011;5056;44.272;19.892;2023-06-26T15:54:45;5.43;;;4.97;;
10031;SDS011;5056;44.272;19.892;2023-06-26T15:57:12;5.32;;;4.82;;
10031;SDS011;5056;44.272;19.892;2023-06-26T15:59:39;5.03;;;4.63;;
10031;SDS011;5056;44.272;19.892;2023-06-26T16:02:06;5.82;;;5.05;;
10031;SDS011;5056;44.272;19.892;2023-06-26T16:04:41;5.65;;;5.03;;
10031;SDS011;5056;44.272;19.892;2023-06-26T16:07:12;5.30;;;4.90;;